sensor_id;sensor_type;location;lat;lon;timestamp;temperature;humidity
15131;DHT22;7666;50.920;4.628;2023-03-23T00:01:23;13.10;99.90
15131;DHT22;7666;50.920;4.628;2023-03-23T00:04:12;13.10;99.90
15131;DHT22;7666;50.920;4.628;2023-03-23T00:06:59;13.20;99.90
15131;DHT22;7666;50.920;4.628;2023-03-23T00:09:49;13.20;99.90
15131;DHT22;7666;50.920;4.628;2023-03-23T00:12:39;13.10;99.90
15131;DHT22;7666;50.920;4.628;2023-03-23T00:15:28;13.10;99.90
15131;DHT22;7666;50.920;4.628;2023-03-23T00:18:19;13.10;99.90
15131;DHT22;7666;50.920;4.628;2023-03-23T00:21:08;13.10;99.90
15131;DHT22;7666;50.920;4.628;2023-03-23T00:23:54;13.10;99.90
15131;DHT22;7666;50.920;4.628;2023-03-23T00:26:40;13.10;99.90
15131;DHT22;7666;50.920;4.628;2023-03-23T00:29:27;13.10;99.90
15131;DHT22;7666;50.920;4.628;2023-03-23T00:32:13;13.10;99.90
15131;DHT22;7666;50.920;4.628;2023-03-23T00:35:00;13.10;99.90
15131;DHT22;7666;50.920;4.628;2023-03-23T00:37:46;13.10;99.90
15131;DHT22;7666;50.920;4.628;2023-03-23T00:40:32;13.10;99.90
15131;DHT22;7666;50.920;4.628;2023-03-23T00:43:21;13.20;99.90
15131;DHT22;7666;50.920;4.628;2023-03-23T00:46:10;13.10;99.90
15131;DHT22;7666;50.920;4.628;2023-03-23T00:48:56;13.10;99.90
15131;DHT22;7666;50.920;4.628;2023-03-23T00:51:43;13.10;99.90
15131;DHT22;7666;50.920;4.628;2023-03-23T00:54:29;13.10;99.90
15131;DHT22;7666;50.920;4.628;2023-03-23T00:57:15;13.10;99.90
15131;DHT22;7666;50.920;4.628;2023-03-23T01:00:03;13.10;99.90
15131;DHT22;7666;50.920;4.628;2023-03-23T01:02:54;13.10;99.90
15131;DHT22;7666;50.920;4.628;2023-03-23T01:05:40;13.10;99.90
15131;DHT22;7666;50.920;4.628;2023-03-23T01:08:27;13.10;99.90
15131;DHT22;7666;50.920;4.628;2023-03-23T01:11:15;13.10;99.90
15131;DHT22;7666;50.920;4.628;2023-03-23T01:14:01;13.10;99.90
15131;DHT22;7666;50.920;4.628;2023-03-23T01:16:49;13.10;99.90
15131;DHT22;7666;50.920;4.628;2023-03-23T01:19:36;13.10;99.90
15131;DHT22;7666;50.920;4.628;2023-03-23T01:22:23;13.10;99.90
15131;DHT22;7666;50.920;4.628;2023-03-23T01:25:11;13.10;99.90
15131;DHT22;7666;50.920;4.628;2023-03-23T01:27:57;13.10;99.90
15131;DHT22;7666;50.920;4.628;2023-03-23T01:30:44;13.20;99.90
15131;DHT22;7666;50.920;4.628;2023-03-23T01:33:30;13.20;99.90
15131;DHT22;7666;50.920;4.628;2023-03-23T01:36:19;13.20;99.90
15131;DHT22;7666;50.920;4.628;2023-03-23T01:39:06;13.20;99.90
15131;DHT22;7666;50.920;4.628;2023-03-23T01:41:52;13.20;99.90
15131;DHT22;7666;50.920;4.628;2023-03-23T01:47:24;13.10;99.90
15131;DHT22;7666;50.920;4.628;2023-03-23T01:50:12;13.20;99.90
15131;DHT22;7666;50.920;4.628;2023-03-23T01:52:59;13.10;99.90
15131;DHT22;7666;50.920;4.628;2023-03-23T01:55:49;13.10;99.90
15131;DHT22;7666;50.920;4.628;2023-03-23T01:58:38;13.10;99.90
15131;DHT22;7666;50.920;4.628;2023-03-23T02:01:26;13.10;99.90
15131;DHT22;7666;50.920;4.628;2023-03-23T02:04:15;13.10;99.90
15131;DHT22;7666;50.920;4.628;2023-03-23T02:07:06;13.10;99.90
15131;DHT22;7666;50.920;4.628;2023-03-23T02:09:51;13.00;99.90
15131;DHT22;7666;50.920;4.628;2023-03-23T02:12:38;13.00;99.90
15131;DHT22;7666;50.920;4.628;2023-03-23T02:15:32;13.10;99.90
15131;DHT22;7666;50.920;4.628;2023-03-23T02:21:40;13.20;99.90
15131;DHT22;7666;50.920;4.628;2023-03-23T02:24:57;13.20;99.90
15131;DHT22;7666;50.920;4.628;2023-03-23T02:31:17;13.20;99.90
15131;DHT22;7666;50.920;4.628;2023-03-23T02:37:04;13.20;99.90
15131;DHT22;7666;50.920;4.628;2023-03-23T02:39:54;13.20;99.90
15131;DHT22;7666;50.920;4.628;2023-03-23T02:42:45;13.10;99.90
15131;DHT22;7666;50.920;4.628;2023-03-23T02:45:33;13.10;99.90
15131;DHT22;7666;50.920;4.628;2023-03-23T02:48:22;13.10;99.90
15131;DHT22;7666;50.920;4.628;2023-03-23T02:51:11;13.10;99.90
15131;DHT22;7666;50.920;4.628;2023-03-23T02:53:59;13.10;99.90
15131;DHT22;7666;50.920;4.628;2023-03-23T02:56:45;13.10;99.90
15131;DHT22;7666;50.920;4.628;2023-03-23T02:59:32;13.10;99.90
15131;DHT22;7666;50.920;4.628;2023-03-23T03:02:31;13.10;99.90
15131;DHT22;7666;50.920;4.628;2023-03-23T03:11:16;13.20;99.90
15131;DHT22;7666;50.920;4.628;2023-03-23T03:14:11;13.20;99.90
15131;DHT22;7666;50.920;4.628;2023-03-23T03:17:25;13.10;99.90
15131;DHT22;7666;50.920;4.628;2023-03-23T03:20:14;13.10;99.90
15131;DHT22;7666;50.920;4.628;2023-03-23T03:23:01;13.10;99.90
15131;DHT22;7666;50.920;4.628;2023-03-23T03:25:48;13.10;99.90
15131;DHT22;7666;50.920;4.628;2023-03-23T03:28:35;13.10;99.90
15131;DHT22;7666;50.920;4.628;2023-03-23T03:31:29;13.10;99.90
15131;DHT22;7666;50.920;4.628;2023-03-23T03:34:16;13.10;99.90
15131;DHT22;7666;50.920;4.628;2023-03-23T03:37:04;13.10;99.90
15131;DHT22;7666;50.920;4.628;2023-03-23T03:39:51;13.10;99.90
15131;DHT22;7666;50.920;4.628;2023-03-23T03:42:41;13.10;99.90
15131;DHT22;7666;50.920;4.628;2023-03-23T03:45:28;13.10;99.90
15131;DHT22;7666;50.920;4.628;2023-03-23T03:48:14;13.10;99.90
15131;DHT22;7666;50.920;4.628;2023-03-23T03:51:00;13.10;99.90
15131;DHT22;7666;50.920;4.628;2023-03-23T03:53:47;13.10;99.90
15131;DHT22;7666;50.920;4.628;2023-03-23T03:56:33;13.10;99.90
15131;DHT22;7666;50.920;4.628;2023-03-23T03:59:22;13.10;99.90
15131;DHT22;7666;50.920;4.628;2023-03-23T04:02:08;13.10;99.90
15131;DHT22;7666;50.920;4.628;2023-03-23T04:04:54;13.10;99.90
15131;DHT22;7666;50.920;4.628;2023-03-23T04:07:40;13.10;99.90
15131;DHT22;7666;50.920;4.628;2023-03-23T04:10:28;13.00;99.90
15131;DHT22;7666;50.920;4.628;2023-03-23T04:13:14;13.00;99.90
15131;DHT22;7666;50.920;4.628;2023-03-23T04:16:01;13.00;99.90
15131;DHT22;7666;50.920;4.628;2023-03-23T04:18:47;13.00;99.90
15131;DHT22;7666;50.920;4.628;2023-03-23T04:21:33;13.00;99.90
15131;DHT22;7666;50.920;4.628;2023-03-23T04:24:20;13.00;99.90
15131;DHT22;7666;50.920;4.628;2023-03-23T04:27:06;13.00;99.90
15131;DHT22;7666;50.920;4.628;2023-03-23T04:29:52;13.00;99.90
15131;DHT22;7666;50.920;4.628;2023-03-23T04:32:40;13.00;99.90
15131;DHT22;7666;50.920;4.628;2023-03-23T04:35:29;13.00;99.90
15131;DHT22;7666;50.920;4.628;2023-03-23T04:38:16;13.00;99.90
15131;DHT22;7666;50.920;4.628;2023-03-23T04:41:05;13.00;99.90
15131;DHT22;7666;50.920;4.628;2023-03-23T04:43:52;13.00;99.90
15131;DHT22;7666;50.920;4.628;2023-03-23T04:46:39;13.00;99.90
15131;DHT22;7666;50.920;4.628;2023-03-23T04:49:25;13.00;99.90
15131;DHT22;7666;50.920;4.628;2023-03-23T04:52:11;13.00;99.90
15131;DHT22;7666;50.920;4.628;2023-03-23T04:54:57;13.00;99.90
15131;DHT22;7666;50.920;4.628;2023-03-23T04:57:43;13.00;99.90
15131;DHT22;7666;50.920;4.628;2023-03-23T05:00:29;13.00;99.90
15131;DHT22;7666;50.920;4.628;2023-03-23T05:03:19;13.10;99.90
15131;DHT22;7666;50.920;4.628;2023-03-23T05:06:06;13.00;99.90
15131;DHT22;7666;50.920;4.628;2023-03-23T05:08:52;13.00;99.90
15131;DHT22;7666;50.920;4.628;2023-03-23T05:11:38;13.00;99.90
15131;DHT22;7666;50.920;4.628;2023-03-23T05:14:24;13.00;99.90
15131;DHT22;7666;50.920;4.628;2023-03-23T05:17:10;12.90;99.90
15131;DHT22;7666;50.920;4.628;2023-03-23T05:19:56;12.90;99.90
15131;DHT22;7666;50.920;4.628;2023-03-23T05:22:42;12.90;99.90
15131;DHT22;7666;50.920;4.628;2023-03-23T05:25:30;12.80;99.90
15131;DHT22;7666;50.920;4.628;2023-03-23T05:28:16;12.80;99.90
15131;DHT22;7666;50.920;4.628;2023-03-23T05:31:02;12.80;99.90
15131;DHT22;7666;50.920;4.628;2023-03-23T05:33:48;12.80;99.90
15131;DHT22;7666;50.920;4.628;2023-03-23T05:36:34;12.80;99.90
15131;DHT22;7666;50.920;4.628;2023-03-23T05:39:21;12.70;99.90
15131;DHT22;7666;50.920;4.628;2023-03-23T05:42:07;12.70;99.90
15131;DHT22;7666;50.920;4.628;2023-03-23T05:44:54;12.70;99.90
15131;DHT22;7666;50.920;4.628;2023-03-23T05:47:40;12.70;99.90
15131;DHT22;7666;50.920;4.628;2023-03-23T05:50:26;12.70;99.90
15131;DHT22;7666;50.920;4.628;2023-03-23T05:53:13;12.70;99.90
15131;DHT22;7666;50.920;4.628;2023-03-23T05:56:00;12.70;99.90
15131;DHT22;7666;50.920;4.628;2023-03-23T05:58:46;12.60;99.90
15131;DHT22;7666;50.920;4.628;2023-03-23T06:01:32;12.60;99.90
15131;DHT22;7666;50.920;4.628;2023-03-23T06:04:18;12.60;99.90
15131;DHT22;7666;50.920;4.628;2023-03-23T06:07:04;12.60;99.90
15131;DHT22;7666;50.920;4.628;2023-03-23T06:09:52;12.60;99.90
15131;DHT22;7666;50.920;4.628;2023-03-23T06:12:39;12.60;99.90
15131;DHT22;7666;50.920;4.628;2023-03-23T06:15:25;12.60;99.90
15131;DHT22;7666;50.920;4.628;2023-03-23T06:18:15;12.60;99.90
15131;DHT22;7666;50.920;4.628;2023-03-23T06:21:01;12.70;99.90
15131;DHT22;7666;50.920;4.628;2023-03-23T06:23:47;12.70;99.90
15131;DHT22;7666;50.920;4.628;2023-03-23T06:26:35;12.70;99.90
15131;DHT22;7666;50.920;4.628;2023-03-23T06:29:22;12.70;99.90
15131;DHT22;7666;50.920;4.628;2023-03-23T06:32:10;12.70;99.90
15131;DHT22;7666;50.920;4.628;2023-03-23T06:34:57;12.70;99.90
15131;DHT22;7666;50.920;4.628;2023-03-23T06:37:43;12.70;99.90
15131;DHT22;7666;50.920;4.628;2023-03-23T06:40:29;12.70;99.90
15131;DHT22;7666;50.920;4.628;2023-03-23T06:43:15;12.70;99.90
15131;DHT22;7666;50.920;4.628;2023-03-23T06:46:01;12.80;99.90
15131;DHT22;7666;50.920;4.628;2023-03-23T06:48:47;12.80;99.90
15131;DHT22;7666;50.920;4.628;2023-03-23T06:51:36;12.80;99.90
15131;DHT22;7666;50.920;4.628;2023-03-23T06:54:22;12.80;99.90
15131;DHT22;7666;50.920;4.628;2023-03-23T06:57:09;12.80;99.90
15131;DHT22;7666;50.920;4.628;2023-03-23T06:59:55;12.80;99.90
15131;DHT22;7666;50.920;4.628;2023-03-23T07:02:41;12.90;99.90
15131;DHT22;7666;50.920;4.628;2023-03-23T07:05:27;12.80;99.90
15131;DHT22;7666;50.920;4.628;2023-03-23T07:08:13;12.80;99.90
15131;DHT22;7666;50.920;4.628;2023-03-23T07:11:00;12.70;99.90
15131;DHT22;7666;50.920;4.628;2023-03-23T07:13:46;12.70;99.90
15131;DHT22;7666;50.920;4.628;2023-03-23T07:16:32;12.60;99.90
15131;DHT22;7666;50.920;4.628;2023-03-23T07:19:18;12.60;99.90
15131;DHT22;7666;50.920;4.628;2023-03-23T07:22:05;12.10;99.90
15131;DHT22;7666;50.920;4.628;2023-03-23T07:24:52;11.60;99.90
15131;DHT22;7666;50.920;4.628;2023-03-23T07:27:38;11.30;99.90
15131;DHT22;7666;50.920;4.628;2023-03-23T07:30:24;11.10;99.90
15131;DHT22;7666;50.920;4.628;2023-03-23T07:33:10;10.80;99.90
15131;DHT22;7666;50.920;4.628;2023-03-23T07:35:59;10.70;99.90
15131;DHT22;7666;50.920;4.628;2023-03-23T07:38:46;10.50;99.90
15131;DHT22;7666;50.920;4.628;2023-03-23T07:41:32;10.40;99.90
15131;DHT22;7666;50.920;4.628;2023-03-23T07:44:18;10.40;99.90
15131;DHT22;7666;50.920;4.628;2023-03-23T07:47:04;10.40;99.90
15131;DHT22;7666;50.920;4.628;2023-03-23T07:49:50;10.40;99.90
15131;DHT22;7666;50.920;4.628;2023-03-23T07:52:37;10.30;99.90
15131;DHT22;7666;50.920;4.628;2023-03-23T07:55:24;10.30;99.90
15131;DHT22;7666;50.920;4.628;2023-03-23T07:58:10;10.40;99.90
15131;DHT22;7666;50.920;4.628;2023-03-23T08:00:57;10.50;99.90
15131;DHT22;7666;50.920;4.628;2023-03-23T08:03:43;10.50;99.90
15131;DHT22;7666;50.920;4.628;2023-03-23T08:06:32;10.60;99.90
15131;DHT22;7666;50.920;4.628;2023-03-23T08:09:19;10.80;99.90
15131;DHT22;7666;50.920;4.628;2023-03-23T08:12:05;10.90;99.90
15131;DHT22;7666;50.920;4.628;2023-03-23T08:14:51;11.00;99.90
15131;DHT22;7666;50.920;4.628;2023-03-23T08:17:39;11.10;99.90
15131;DHT22;7666;50.920;4.628;2023-03-23T08:20:25;11.20;99.90
15131;DHT22;7666;50.920;4.628;2023-03-23T08:23:12;11.30;99.90
15131;DHT22;7666;50.920;4.628;2023-03-23T08:25:59;11.30;99.90
15131;DHT22;7666;50.920;4.628;2023-03-23T08:28:45;11.40;99.90
15131;DHT22;7666;50.920;4.628;2023-03-23T08:31:31;11.50;99.90
15131;DHT22;7666;50.920;4.628;2023-03-23T08:34:21;11.60;99.90
15131;DHT22;7666;50.920;4.628;2023-03-23T08:37:07;11.60;99.90
15131;DHT22;7666;50.920;4.628;2023-03-23T08:39:56;11.60;99.90
15131;DHT22;7666;50.920;4.628;2023-03-23T08:42:43;11.60;99.90
15131;DHT22;7666;50.920;4.628;2023-03-23T08:45:29;11.50;99.90
15131;DHT22;7666;50.920;4.628;2023-03-23T08:48:15;11.40;99.90
15131;DHT22;7666;50.920;4.628;2023-03-23T08:51:03;11.30;99.90
15131;DHT22;7666;50.920;4.628;2023-03-23T08:53:49;11.30;99.90
15131;DHT22;7666;50.920;4.628;2023-03-23T08:56:36;11.30;99.90
15131;DHT22;7666;50.920;4.628;2023-03-23T08:59:22;11.40;99.90
15131;DHT22;7666;50.920;4.628;2023-03-23T09:02:12;11.40;99.90
15131;DHT22;7666;50.920;4.628;2023-03-23T09:04:58;11.40;99.90
15131;DHT22;7666;50.920;4.628;2023-03-23T09:07:46;11.40;99.90
15131;DHT22;7666;50.920;4.628;2023-03-23T09:10:33;11.40;99.90
15131;DHT22;7666;50.920;4.628;2023-03-23T09:13:19;11.50;99.90
15131;DHT22;7666;50.920;4.628;2023-03-23T09:16:09;11.60;99.90
15131;DHT22;7666;50.920;4.628;2023-03-23T09:18:55;11.60;99.90
15131;DHT22;7666;50.920;4.628;2023-03-23T09:21:42;11.70;99.90
15131;DHT22;7666;50.920;4.628;2023-03-23T09:24:28;11.60;99.90
15131;DHT22;7666;50.920;4.628;2023-03-23T09:27:14;11.50;99.90
15131;DHT22;7666;50.920;4.628;2023-03-23T09:30:00;11.40;99.90
15131;DHT22;7666;50.920;4.628;2023-03-23T09:32:47;11.50;99.90
15131;DHT22;7666;50.920;4.628;2023-03-23T09:35:35;11.50;99.90
15131;DHT22;7666;50.920;4.628;2023-03-23T09:38:23;11.60;99.90
15131;DHT22;7666;50.920;4.628;2023-03-23T09:50:30;11.80;99.90
15131;DHT22;7666;50.920;4.628;2023-03-23T09:53:27;11.80;99.90
15131;DHT22;7666;50.920;4.628;2023-03-23T09:56:15;11.90;99.90
15131;DHT22;7666;50.920;4.628;2023-03-23T09:59:13;12.10;99.90
15131;DHT22;7666;50.920;4.628;2023-03-23T10:02:15;12.40;99.90
15131;DHT22;7666;50.920;4.628;2023-03-23T10:08:22;13.00;99.90
15131;DHT22;7666;50.920;4.628;2023-03-23T10:14:52;13.10;99.90
15131;DHT22;7666;50.920;4.628;2023-03-23T10:17:52;13.10;99.90
15131;DHT22;7666;50.920;4.628;2023-03-23T10:20:43;13.20;99.90
15131;DHT22;7666;50.920;4.628;2023-03-23T10:23:43;13.30;99.90
15131;DHT22;7666;50.920;4.628;2023-03-23T10:29:40;13.60;99.90
15131;DHT22;7666;50.920;4.628;2023-03-23T10:32:43;13.80;99.90
15131;DHT22;7666;50.920;4.628;2023-03-23T10:38:53;14.00;99.90
15131;DHT22;7666;50.920;4.628;2023-03-23T10:41:42;14.10;99.90
15131;DHT22;7666;50.920;4.628;2023-03-23T10:44:29;14.10;99.90
15131;DHT22;7666;50.920;4.628;2023-03-23T10:47:15;14.10;99.90
15131;DHT22;7666;50.920;4.628;2023-03-23T10:50:05;14.00;99.90
15131;DHT22;7666;50.920;4.628;2023-03-23T10:52:52;14.10;99.90
15131;DHT22;7666;50.920;4.628;2023-03-23T10:55:40;14.20;99.90
15131;DHT22;7666;50.920;4.628;2023-03-23T10:58:36;14.30;99.90
15131;DHT22;7666;50.920;4.628;2023-03-23T11:01:33;14.60;99.90
15131;DHT22;7666;50.920;4.628;2023-03-23T11:04:20;14.70;99.90
15131;DHT22;7666;50.920;4.628;2023-03-23T11:07:18;14.80;99.90
15131;DHT22;7666;50.920;4.628;2023-03-23T11:10:16;15.10;99.90
15131;DHT22;7666;50.920;4.628;2023-03-23T11:13:03;15.00;99.90
15131;DHT22;7666;50.920;4.628;2023-03-23T11:15:50;14.90;99.90
15131;DHT22;7666;50.920;4.628;2023-03-23T11:18:41;14.70;99.90
15131;DHT22;7666;50.920;4.628;2023-03-23T11:21:28;14.70;99.90
15131;DHT22;7666;50.920;4.628;2023-03-23T11:24:14;14.90;99.90
15131;DHT22;7666;50.920;4.628;2023-03-23T11:27:00;15.00;99.90
15131;DHT22;7666;50.920;4.628;2023-03-23T11:29:52;15.10;99.90
15131;DHT22;7666;50.920;4.628;2023-03-23T11:32:43;15.20;99.90
15131;DHT22;7666;50.920;4.628;2023-03-23T11:35:30;15.20;99.90
15131;DHT22;7666;50.920;4.628;2023-03-23T11:38:19;15.40;99.90
15131;DHT22;7666;50.920;4.628;2023-03-23T11:41:12;15.70;99.90
15131;DHT22;7666;50.920;4.628;2023-03-23T11:44:09;15.90;99.90
15131;DHT22;7666;50.920;4.628;2023-03-23T11:47:08;16.10;99.90
15131;DHT22;7666;50.920;4.628;2023-03-23T11:50:18;16.00;99.90
15131;DHT22;7666;50.920;4.628;2023-03-23T11:59:14;15.70;99.90
15131;DHT22;7666;50.920;4.628;2023-03-23T12:14:43;15.80;99.90
15131;DHT22;7666;50.920;4.628;2023-03-23T12:26:22;15.50;99.90
15131;DHT22;7666;50.920;4.628;2023-03-23T12:29:25;15.70;99.90
15131;DHT22;7666;50.920;4.628;2023-03-23T12:38:49;16.60;99.90
15131;DHT22;7666;50.920;4.628;2023-03-23T12:42:00;16.70;99.90
15131;DHT22;7666;50.920;4.628;2023-03-23T12:48:33;16.90;99.90
15131;DHT22;7666;50.920;4.628;2023-03-23T12:51:40;16.70;99.90
15131;DHT22;7666;50.920;4.628;2023-03-23T12:54:34;16.60;99.90
15131;DHT22;7666;50.920;4.628;2023-03-23T13:00:46;16.70;99.90
15131;DHT22;7666;50.920;4.628;2023-03-23T13:03:52;16.90;99.90
15131;DHT22;7666;50.920;4.628;2023-03-23T13:06:45;16.90;99.90
15131;DHT22;7666;50.920;4.628;2023-03-23T13:09:55;16.60;99.90
15131;DHT22;7666;50.920;4.628;2023-03-23T13:12:44;16.20;99.90
15131;DHT22;7666;50.920;4.628;2023-03-23T13:15:53;16.10;99.90
15131;DHT22;7666;50.920;4.628;2023-03-23T13:22:18;16.10;99.90
15131;DHT22;7666;50.920;4.628;2023-03-23T13:25:14;16.10;99.90
15131;DHT22;7666;50.920;4.628;2023-03-23T13:28:02;16.20;99.90
15131;DHT22;7666;50.920;4.628;2023-03-23T13:33:50;16.20;99.90
15131;DHT22;7666;50.920;4.628;2023-03-23T13:36:42;16.20;99.90
15131;DHT22;7666;50.920;4.628;2023-03-23T13:39:34;16.60;99.90
15131;DHT22;7666;50.920;4.628;2023-03-23T13:42:25;16.70;99.90
15131;DHT22;7666;50.920;4.628;2023-03-23T13:45:46;16.60;99.90
15131;DHT22;7666;50.920;4.628;2023-03-23T13:48:41;16.90;99.90
15131;DHT22;7666;50.920;4.628;2023-03-23T13:51:36;17.00;99.90
15131;DHT22;7666;50.920;4.628;2023-03-23T13:54:29;17.10;99.90
15131;DHT22;7666;50.920;4.628;2023-03-23T13:57:26;17.20;99.90
15131;DHT22;7666;50.920;4.628;2023-03-23T14:03:25;16.60;99.90
15131;DHT22;7666;50.920;4.628;2023-03-23T14:06:14;16.50;99.90
15131;DHT22;7666;50.920;4.628;2023-03-23T14:09:33;16.40;99.90
15131;DHT22;7666;50.920;4.628;2023-03-23T14:12:20;16.20;99.90
15131;DHT22;7666;50.920;4.628;2023-03-23T14:15:13;16.10;99.90
15131;DHT22;7666;50.920;4.628;2023-03-23T14:18:03;16.00;99.90
15131;DHT22;7666;50.920;4.628;2023-03-23T14:20:50;15.90;99.90
15131;DHT22;7666;50.920;4.628;2023-03-23T14:23:36;15.80;99.90
15131;DHT22;7666;50.920;4.628;2023-03-23T14:26:22;15.70;99.90
15131;DHT22;7666;50.920;4.628;2023-03-23T14:29:11;15.60;99.90
15131;DHT22;7666;50.920;4.628;2023-03-23T14:31:59;15.50;99.90
15131;DHT22;7666;50.920;4.628;2023-03-23T14:34:47;15.40;99.90
15131;DHT22;7666;50.920;4.628;2023-03-23T14:37:34;15.60;99.90
15131;DHT22;7666;50.920;4.628;2023-03-23T14:40:26;15.80;99.90
15131;DHT22;7666;50.920;4.628;2023-03-23T14:43:15;15.80;99.90
15131;DHT22;7666;50.920;4.628;2023-03-23T14:46:06;16.00;99.90
15131;DHT22;7666;50.920;4.628;2023-03-23T14:48:53;16.00;99.90
15131;DHT22;7666;50.920;4.628;2023-03-23T14:51:47;16.00;99.90
15131;DHT22;7666;50.920;4.628;2023-03-23T14:54:34;15.80;99.90
15131;DHT22;7666;50.920;4.628;2023-03-23T15:00:27;15.70;99.90
15131;DHT22;7666;50.920;4.628;2023-03-23T15:03:17;15.60;99.90
15131;DHT22;7666;50.920;4.628;2023-03-23T15:06:10;15.50;99.90
15131;DHT22;7666;50.920;4.628;2023-03-23T15:09:04;15.40;99.90
15131;DHT22;7666;50.920;4.628;2023-03-23T15:12:02;15.40;99.90
15131;DHT22;7666;50.920;4.628;2023-03-23T15:14:51;15.40;99.90
15131;DHT22;7666;50.920;4.628;2023-03-23T15:17:38;15.50;99.90
15131;DHT22;7666;50.920;4.628;2023-03-23T15:23:30;15.80;99.90
15131;DHT22;7666;50.920;4.628;2023-03-23T15:26:31;15.90;99.90
15131;DHT22;7666;50.920;4.628;2023-03-23T15:29:19;16.00;99.90
15131;DHT22;7666;50.920;4.628;2023-03-23T15:32:10;15.90;99.90
15131;DHT22;7666;50.920;4.628;2023-03-23T15:34:57;15.80;99.90
15131;DHT22;7666;50.920;4.628;2023-03-23T15:37:52;15.70;99.90
15131;DHT22;7666;50.920;4.628;2023-03-23T15:40:40;15.70;99.90
15131;DHT22;7666;50.920;4.628;2023-03-23T15:43:31;15.70;99.90
15131;DHT22;7666;50.920;4.628;2023-03-23T15:46:21;15.70;99.90
15131;DHT22;7666;50.920;4.628;2023-03-23T15:49:10;15.70;99.90
15131;DHT22;7666;50.920;4.628;2023-03-23T15:51:56;15.60;99.90
15131;DHT22;7666;50.920;4.628;2023-03-23T15:54:47;15.70;99.90
15131;DHT22;7666;50.920;4.628;2023-03-23T15:57:34;15.60;99.90
15131;DHT22;7666;50.920;4.628;2023-03-23T16:00:22;15.60;99.90
15131;DHT22;7666;50.920;4.628;2023-03-23T16:03:12;15.50;99.90
15131;DHT22;7666;50.920;4.628;2023-03-23T16:05:59;15.50;99.90
15131;DHT22;7666;50.920;4.628;2023-03-23T16:08:48;15.40;99.90
15131;DHT22;7666;50.920;4.628;2023-03-23T16:11:34;15.30;99.90
15131;DHT22;7666;50.920;4.628;2023-03-23T16:14:20;15.20;99.90
15131;DHT22;7666;50.920;4.628;2023-03-23T16:17:13;15.20;99.90
15131;DHT22;7666;50.920;4.628;2023-03-23T16:20:00;15.20;99.90
15131;DHT22;7666;50.920;4.628;2023-03-23T16:22:49;15.20;99.90
15131;DHT22;7666;50.920;4.628;2023-03-23T16:25:35;15.30;99.90
15131;DHT22;7666;50.920;4.628;2023-03-23T16:28:21;15.30;99.90
15131;DHT22;7666;50.920;4.628;2023-03-23T16:31:08;15.40;99.90
15131;DHT22;7666;50.920;4.628;2023-03-23T16:33:54;15.40;99.90
15131;DHT22;7666;50.920;4.628;2023-03-23T16:36:40;15.40;99.90
15131;DHT22;7666;50.920;4.628;2023-03-23T16:39:26;15.50;99.90
15131;DHT22;7666;50.920;4.628;2023-03-23T16:42:12;15.50;99.90
15131;DHT22;7666;50.920;4.628;2023-03-23T16:44:58;15.50;99.90
15131;DHT22;7666;50.920;4.628;2023-03-23T16:47:44;15.50;99.90
15131;DHT22;7666;50.920;4.628;2023-03-23T16:50:31;15.50;99.90
15131;DHT22;7666;50.920;4.628;2023-03-23T16:53:17;15.40;99.90
15131;DHT22;7666;50.920;4.628;2023-03-23T16:56:04;15.40;99.90
15131;DHT22;7666;50.920;4.628;2023-03-23T16:58:50;15.30;99.90
15131;DHT22;7666;50.920;4.628;2023-03-23T17:01:36;15.30;99.90
15131;DHT22;7666;50.920;4.628;2023-03-23T17:04:22;15.20;99.90
15131;DHT22;7666;50.920;4.628;2023-03-23T17:07:08;15.10;99.90
15131;DHT22;7666;50.920;4.628;2023-03-23T17:09:54;15.10;99.90
15131;DHT22;7666;50.920;4.628;2023-03-23T17:12:40;15.00;99.90
15131;DHT22;7666;50.920;4.628;2023-03-23T17:15:26;15.10;99.90
15131;DHT22;7666;50.920;4.628;2023-03-23T17:18:13;15.00;99.90
15131;DHT22;7666;50.920;4.628;2023-03-23T17:20:59;15.00;99.90
15131;DHT22;7666;50.920;4.628;2023-03-23T17:23:45;14.90;99.90
15131;DHT22;7666;50.920;4.628;2023-03-23T17:26:31;14.90;99.90
15131;DHT22;7666;50.920;4.628;2023-03-23T17:29:17;14.90;99.90
15131;DHT22;7666;50.920;4.628;2023-03-23T17:32:04;14.90;99.90
15131;DHT22;7666;50.920;4.628;2023-03-23T17:34:50;14.80;99.90
15131;DHT22;7666;50.920;4.628;2023-03-23T17:37:37;14.80;99.90
15131;DHT22;7666;50.920;4.628;2023-03-23T17:40:24;14.80;99.90
15131;DHT22;7666;50.920;4.628;2023-03-23T17:43:10;14.80;99.90
15131;DHT22;7666;50.920;4.628;2023-03-23T17:45:56;14.80;99.90
15131;DHT22;7666;50.920;4.628;2023-03-23T17:48:43;14.80;99.90
15131;DHT22;7666;50.920;4.628;2023-03-23T17:51:29;14.80;99.90
15131;DHT22;7666;50.920;4.628;2023-03-23T17:54:15;14.80;99.90
15131;DHT22;7666;50.920;4.628;2023-03-23T17:57:01;14.80;99.90
15131;DHT22;7666;50.920;4.628;2023-03-23T17:59:48;14.80;99.90
15131;DHT22;7666;50.920;4.628;2023-03-23T18:02:35;14.80;99.90
15131;DHT22;7666;50.920;4.628;2023-03-23T18:05:21;14.80;99.90
15131;DHT22;7666;50.920;4.628;2023-03-23T18:08:09;14.80;99.90
15131;DHT22;7666;50.920;4.628;2023-03-23T18:10:56;14.80;99.90
15131;DHT22;7666;50.920;4.628;2023-03-23T18:13:42;14.80;99.90
15131;DHT22;7666;50.920;4.628;2023-03-23T18:16:29;14.80;99.90
15131;DHT22;7666;50.920;4.628;2023-03-23T18:19:15;14.80;99.90
15131;DHT22;7666;50.920;4.628;2023-03-23T18:22:01;14.80;99.90
15131;DHT22;7666;50.920;4.628;2023-03-23T18:24:47;14.90;99.90
15131;DHT22;7666;50.920;4.628;2023-03-23T18:27:34;14.90;99.90
15131;DHT22;7666;50.920;4.628;2023-03-23T18:30:20;14.90;99.90
15131;DHT22;7666;50.920;4.628;2023-03-23T18:33:06;14.80;99.90
15131;DHT22;7666;50.920;4.628;2023-03-23T18:35:59;14.90;99.90
15131;DHT22;7666;50.920;4.628;2023-03-23T18:38:45;14.90;99.90
15131;DHT22;7666;50.920;4.628;2023-03-23T18:41:32;14.80;99.90
15131;DHT22;7666;50.920;4.628;2023-03-23T18:44:18;14.80;99.90
15131;DHT22;7666;50.920;4.628;2023-03-23T18:47:04;14.80;99.90
15131;DHT22;7666;50.920;4.628;2023-03-23T18:49:50;14.80;99.90
15131;DHT22;7666;50.920;4.628;2023-03-23T18:52:39;14.80;99.90
15131;DHT22;7666;50.920;4.628;2023-03-23T18:55:26;14.80;99.90
15131;DHT22;7666;50.920;4.628;2023-03-23T18:58:14;14.70;99.90
15131;DHT22;7666;50.920;4.628;2023-03-23T19:01:03;14.70;99.90
15131;DHT22;7666;50.920;4.628;2023-03-23T19:03:49;14.60;99.90
15131;DHT22;7666;50.920;4.628;2023-03-23T19:06:35;14.50;99.90
15131;DHT22;7666;50.920;4.628;2023-03-23T19:09:21;14.40;99.90
15131;DHT22;7666;50.920;4.628;2023-03-23T19:12:08;14.40;99.90
15131;DHT22;7666;50.920;4.628;2023-03-23T19:14:54;14.30;99.90
15131;DHT22;7666;50.920;4.628;2023-03-23T19:17:40;14.30;99.90
15131;DHT22;7666;50.920;4.628;2023-03-23T19:20:26;14.20;99.90
15131;DHT22;7666;50.920;4.628;2023-03-23T19:23:12;14.20;99.90
15131;DHT22;7666;50.920;4.628;2023-03-23T19:25:58;14.20;99.90
15131;DHT22;7666;50.920;4.628;2023-03-23T19:28:44;14.20;99.90
15131;DHT22;7666;50.920;4.628;2023-03-23T19:31:30;14.20;99.90
15131;DHT22;7666;50.920;4.628;2023-03-23T19:34:16;14.10;99.90
15131;DHT22;7666;50.920;4.628;2023-03-23T19:37:02;14.10;99.90
15131;DHT22;7666;50.920;4.628;2023-03-23T19:39:48;14.10;99.90